KNMM

Meridian NAS / Mc Cain Field Airport

Meridian, Mississippi, USA
METAR KNMM 182156Z 00000KT 10SM FEW045 FEW140 BKN250 33/22 A3009 RMK AO2 SLP196 T03280217 $
Observed Flight Rules
Jun-18 @ 21:56 UTC (50 minutes ago) Visual Flight Rules
Visibility Clouds
10 miles
  • Few at 4,500' AGL
  • Few at 14,000' AGL
  • Broken at 25,000' AGL
Temperatures Readings
Current 33°C / 91°F
Dewpoint 22°C / 72°F
Humidity 52%
Altimeter 30.09" Hg
Pressure 1019.6 hPa
Elevation 97
METAR KNMM 182156Z 00000KT 10SM FEW045 FEW140 BKN250 33/22 A3009 RMK AO2 SLP196 T03280217 $
Observed Flight Rules
Jun-18 @ 21:56 UTC
(50 minutes ago)
VFR
Clouds
  • Few at 4,500' AGL
  • Few at 14,000' AGL
  • Broken at 25,000' AGL
Temperature Dewpoint
33°C / 91°F 22°C / 72°F
Humidity Altimeter Pressure
52% 30.09" Hg 1019.6 hPa